sensor_id;sensor_type;location;lat;lon;timestamp;P1;durP1;ratioP1;P2;durP2;ratioP2
1949;SDS011;975;48.760;9.152;2023-06-05T00:01:07;2.70;;;1.30;;
1949;SDS011;975;48.760;9.152;2023-06-05T00:03:55;2.35;;;1.63;;
1949;SDS011;975;48.760;9.152;2023-06-05T00:06:42;2.10;;;1.40;;
1949;SDS011;975;48.760;9.152;2023-06-05T00:09:31;2.05;;;1.20;;
1949;SDS011;975;48.760;9.152;2023-06-05T00:12:20;2.63;;;1.40;;
1949;SDS011;975;48.760;9.152;2023-06-05T00:15:08;2.03;;;1.20;;
1949;SDS011;975;48.760;9.152;2023-06-05T00:17:56;3.17;;;1.13;;
1949;SDS011;975;48.760;9.152;2023-06-05T00:20:46;2.55;;;1.42;;
1949;SDS011;975;48.760;9.152;2023-06-05T00:23:34;1.95;;;1.25;;
1949;SDS011;975;48.760;9.152;2023-06-05T00:26:22;2.80;;;1.63;;
1949;SDS011;975;48.760;9.152;2023-06-05T00:29:11;4.65;;;1.48;;
1949;SDS011;975;48.760;9.152;2023-06-05T00:31:59;2.85;;;1.52;;
1949;SDS011;975;48.760;9.152;2023-06-05T00:34:47;2.90;;;1.45;;
1949;SDS011;975;48.760;9.152;2023-06-05T00:37:35;2.55;;;1.42;;
1949;SDS011;975;48.760;9.152;2023-06-05T00:40:23;4.95;;;1.95;;
1949;SDS011;975;48.760;9.152;2023-06-05T00:43:11;2.53;;;1.30;;
1949;SDS011;975;48.760;9.152;2023-06-05T00:46:01;2.17;;;1.10;;
1949;SDS011;975;48.760;9.152;2023-06-05T00:48:49;3.88;;;1.33;;
1949;SDS011;975;48.760;9.152;2023-06-05T00:51:37;2.13;;;1.30;;
1949;SDS011;975;48.760;9.152;2023-06-05T00:54:30;3.53;;;1.70;;
1949;SDS011;975;48.760;9.152;2023-06-05T00:57:17;3.50;;;1.50;;
1949;SDS011;975;48.760;9.152;2023-06-05T01:00:10;2.60;;;1.45;;
1949;SDS011;975;48.760;9.152;2023-06-05T01:03:01;2.17;;;1.35;;
1949;SDS011;975;48.760;9.152;2023-06-05T01:05:48;3.42;;;1.98;;
1949;SDS011;975;48.760;9.152;2023-06-05T01:08:37;3.92;;;1.55;;
1949;SDS011;975;48.760;9.152;2023-06-05T01:11:28;3.30;;;1.42;;
1949;SDS011;975;48.760;9.152;2023-06-05T01:14:19;1.58;;;1.30;;
1949;SDS011;975;48.760;9.152;2023-06-05T01:17:09;2.08;;;1.40;;
1949;SDS011;975;48.760;9.152;2023-06-05T01:19:58;4.68;;;1.58;;
1949;SDS011;975;48.760;9.152;2023-06-05T01:22:56;3.60;;;1.48;;
1949;SDS011;975;48.760;9.152;2023-06-05T01:25:44;1.58;;;1.23;;
1949;SDS011;975;48.760;9.152;2023-06-05T01:28:32;2.15;;;1.50;;
1949;SDS011;975;48.760;9.152;2023-06-05T01:31:20;2.35;;;1.73;;
1949;SDS011;975;48.760;9.152;2023-06-05T01:34:09;1.45;;;1.20;;
1949;SDS011;975;48.760;9.152;2023-06-05T01:40:06;2.30;;;1.30;;
1949;SDS011;975;48.760;9.152;2023-06-05T01:42:55;2.83;;;1.30;;
1949;SDS011;975;48.760;9.152;2023-06-05T01:45:43;3.78;;;1.65;;
1949;SDS011;975;48.760;9.152;2023-06-05T01:48:31;1.85;;;1.23;;
1949;SDS011;975;48.760;9.152;2023-06-05T01:51:19;2.47;;;1.60;;
1949;SDS011;975;48.760;9.152;2023-06-05T01:54:07;2.03;;;1.10;;
1949;SDS011;975;48.760;9.152;2023-06-05T01:56:57;3.50;;;1.40;;
1949;SDS011;975;48.760;9.152;2023-06-05T01:59:45;3.72;;;1.48;;
1949;SDS011;975;48.760;9.152;2023-06-05T02:02:35;2.15;;;1.63;;
1949;SDS011;975;48.760;9.152;2023-06-05T02:05:25;2.35;;;1.35;;
1949;SDS011;975;48.760;9.152;2023-06-05T02:08:15;3.75;;;1.50;;
1949;SDS011;975;48.760;9.152;2023-06-05T02:11:05;3.33;;;1.30;;
1949;SDS011;975;48.760;9.152;2023-06-05T02:13:57;3.38;;;1.70;;
1949;SDS011;975;48.760;9.152;2023-06-05T02:16:45;3.13;;;1.25;;
1949;SDS011;975;48.760;9.152;2023-06-05T02:19:33;4.97;;;1.90;;
1949;SDS011;975;48.760;9.152;2023-06-05T02:22:21;2.55;;;1.23;;
1949;SDS011;975;48.760;9.152;2023-06-05T02:25:10;3.97;;;1.50;;
1949;SDS011;975;48.760;9.152;2023-06-05T02:27:58;2.38;;;1.60;;
1949;SDS011;975;48.760;9.152;2023-06-05T02:30:47;2.78;;;1.52;;
1949;SDS011;975;48.760;9.152;2023-06-05T02:33:35;1.88;;;1.30;;
1949;SDS011;975;48.760;9.152;2023-06-05T02:36:23;4.00;;;1.45;;
1949;SDS011;975;48.760;9.152;2023-06-05T02:39:14;1.85;;;1.20;;
1949;SDS011;975;48.760;9.152;2023-06-05T02:42:02;2.30;;;1.30;;
1949;SDS011;975;48.760;9.152;2023-06-05T02:44:50;3.08;;;1.45;;
1949;SDS011;975;48.760;9.152;2023-06-05T02:47:47;4.63;;;1.35;;
1949;SDS011;975;48.760;9.152;2023-06-05T02:50:35;7.95;;;2.38;;
1949;SDS011;975;48.760;9.152;2023-06-05T02:53:23;3.00;;;1.60;;
1949;SDS011;975;48.760;9.152;2023-06-05T02:56:11;3.30;;;1.40;;
1949;SDS011;975;48.760;9.152;2023-06-05T02:58:59;3.05;;;1.30;;
1949;SDS011;975;48.760;9.152;2023-06-05T03:01:48;3.28;;;1.38;;
1949;SDS011;975;48.760;9.152;2023-06-05T03:04:37;3.05;;;1.45;;
1949;SDS011;975;48.760;9.152;2023-06-05T03:07:26;1.92;;;1.30;;
1949;SDS011;975;48.760;9.152;2023-06-05T03:10:13;3.08;;;1.48;;
1949;SDS011;975;48.760;9.152;2023-06-05T03:13:01;3.35;;;1.27;;
1949;SDS011;975;48.760;9.152;2023-06-05T03:15:50;3.83;;;1.85;;
1949;SDS011;975;48.760;9.152;2023-06-05T03:18:38;4.95;;;1.55;;
1949;SDS011;975;48.760;9.152;2023-06-05T03:21:30;5.60;;;1.90;;
1949;SDS011;975;48.760;9.152;2023-06-05T03:24:18;6.38;;;2.40;;
1949;SDS011;975;48.760;9.152;2023-06-05T03:27:10;3.42;;;1.40;;
1949;SDS011;975;48.760;9.152;2023-06-05T03:29:58;2.70;;;1.70;;
1949;SDS011;975;48.760;9.152;2023-06-05T03:32:47;2.22;;;1.23;;
1949;SDS011;975;48.760;9.152;2023-06-05T03:35:35;3.53;;;1.25;;
1949;SDS011;975;48.760;9.152;2023-06-05T03:38:27;2.03;;;1.45;;
1949;SDS011;975;48.760;9.152;2023-06-05T03:41:15;3.45;;;1.25;;
1949;SDS011;975;48.760;9.152;2023-06-05T03:44:02;2.00;;;1.33;;
1949;SDS011;975;48.760;9.152;2023-06-05T03:46:50;2.10;;;1.25;;
1949;SDS011;975;48.760;9.152;2023-06-05T03:49:38;2.53;;;1.20;;
1949;SDS011;975;48.760;9.152;2023-06-05T03:52:31;4.13;;;1.80;;
1949;SDS011;975;48.760;9.152;2023-06-05T03:55:28;5.78;;;2.05;;
1949;SDS011;975;48.760;9.152;2023-06-05T03:58:26;4.25;;;1.65;;
1949;SDS011;975;48.760;9.152;2023-06-05T04:01:17;4.85;;;1.70;;
1949;SDS011;975;48.760;9.152;2023-06-05T04:04:05;3.30;;;1.15;;
1949;SDS011;975;48.760;9.152;2023-06-05T04:06:54;3.28;;;1.35;;
1949;SDS011;975;48.760;9.152;2023-06-05T04:09:42;4.40;;;1.50;;
1949;SDS011;975;48.760;9.152;2023-06-05T04:12:37;4.60;;;1.60;;
1949;SDS011;975;48.760;9.152;2023-06-05T04:15:25;3.15;;;1.42;;
1949;SDS011;975;48.760;9.152;2023-06-05T04:18:13;5.18;;;1.85;;
1949;SDS011;975;48.760;9.152;2023-06-05T04:21:00;4.22;;;1.65;;
1949;SDS011;975;48.760;9.152;2023-06-05T04:23:48;7.15;;;1.75;;
1949;SDS011;975;48.760;9.152;2023-06-05T04:26:36;3.08;;;1.38;;
1949;SDS011;975;48.760;9.152;2023-06-05T04:29:27;5.45;;;1.70;;
1949;SDS011;975;48.760;9.152;2023-06-05T04:32:18;3.40;;;1.60;;
1949;SDS011;975;48.760;9.152;2023-06-05T04:35:06;4.05;;;2.28;;
1949;SDS011;975;48.760;9.152;2023-06-05T04:37:54;5.90;;;1.70;;
1949;SDS011;975;48.760;9.152;2023-06-05T04:40:42;3.33;;;1.40;;
1949;SDS011;975;48.760;9.152;2023-06-05T04:43:30;4.13;;;1.73;;
1949;SDS011;975;48.760;9.152;2023-06-05T04:46:19;3.28;;;1.60;;
1949;SDS011;975;48.760;9.152;2023-06-05T04:49:16;2.35;;;1.35;;
1949;SDS011;975;48.760;9.152;2023-06-05T04:52:04;3.72;;;1.60;;
1949;SDS011;975;48.760;9.152;2023-06-05T04:54:52;2.80;;;1.50;;
1949;SDS011;975;48.760;9.152;2023-06-05T04:57:46;2.67;;;1.55;;
1949;SDS011;975;48.760;9.152;2023-06-05T05:00:34;2.95;;;1.73;;
1949;SDS011;975;48.760;9.152;2023-06-05T05:03:23;2.30;;;1.48;;
1949;SDS011;975;48.760;9.152;2023-06-05T05:06:15;3.25;;;1.80;;
1949;SDS011;975;48.760;9.152;2023-06-05T05:09:02;4.72;;;1.67;;
1949;SDS011;975;48.760;9.152;2023-06-05T05:11:50;4.65;;;1.70;;
1949;SDS011;975;48.760;9.152;2023-06-05T05:14:38;2.70;;;1.40;;
1949;SDS011;975;48.760;9.152;2023-06-05T05:17:26;5.55;;;1.60;;
1949;SDS011;975;48.760;9.152;2023-06-05T05:20:16;3.33;;;1.65;;
1949;SDS011;975;48.760;9.152;2023-06-05T05:25:59;4.63;;;1.55;;
1949;SDS011;975;48.760;9.152;2023-06-05T05:28:47;2.78;;;1.25;;
1949;SDS011;975;48.760;9.152;2023-06-05T05:31:38;3.65;;;1.90;;
1949;SDS011;975;48.760;9.152;2023-06-05T05:34:26;3.53;;;1.77;;
1949;SDS011;975;48.760;9.152;2023-06-05T05:37:15;4.07;;;1.58;;
1949;SDS011;975;48.760;9.152;2023-06-05T05:40:03;2.58;;;1.77;;
1949;SDS011;975;48.760;9.152;2023-06-05T05:42:52;2.78;;;1.50;;
1949;SDS011;975;48.760;9.152;2023-06-05T05:45:40;3.25;;;1.98;;
1949;SDS011;975;48.760;9.152;2023-06-05T05:48:30;3.35;;;1.98;;
1949;SDS011;975;48.760;9.152;2023-06-05T05:51:18;3.40;;;1.67;;
1949;SDS011;975;48.760;9.152;2023-06-05T05:54:08;4.18;;;1.77;;
1949;SDS011;975;48.760;9.152;2023-06-05T05:56:59;3.78;;;1.67;;
1949;SDS011;975;48.760;9.152;2023-06-05T05:59:47;3.10;;;1.77;;
1949;SDS011;975;48.760;9.152;2023-06-05T06:02:35;3.85;;;1.70;;
1949;SDS011;975;48.760;9.152;2023-06-05T06:05:23;4.43;;;2.30;;
1949;SDS011;975;48.760;9.152;2023-06-05T06:08:18;4.38;;;1.90;;
1949;SDS011;975;48.760;9.152;2023-06-05T06:11:08;2.90;;;1.88;;
1949;SDS011;975;48.760;9.152;2023-06-05T06:13:55;3.72;;;2.15;;
1949;SDS011;975;48.760;9.152;2023-06-05T06:16:43;3.90;;;1.50;;
1949;SDS011;975;48.760;9.152;2023-06-05T06:19:31;6.80;;;2.08;;
1949;SDS011;975;48.760;9.152;2023-06-05T06:22:20;2.08;;;1.52;;
1949;SDS011;975;48.760;9.152;2023-06-05T06:25:08;3.45;;;1.70;;
1949;SDS011;975;48.760;9.152;2023-06-05T06:28:08;2.60;;;1.60;;
1949;SDS011;975;48.760;9.152;2023-06-05T06:30:59;3.38;;;1.77;;
1949;SDS011;975;48.760;9.152;2023-06-05T06:33:47;4.25;;;1.92;;
1949;SDS011;975;48.760;9.152;2023-06-05T06:36:35;4.20;;;1.95;;
1949;SDS011;975;48.760;9.152;2023-06-05T06:39:26;4.82;;;3.00;;
1949;SDS011;975;48.760;9.152;2023-06-05T06:42:14;3.00;;;1.75;;
1949;SDS011;975;48.760;9.152;2023-06-05T06:45:04;9.30;;;2.20;;
1949;SDS011;975;48.760;9.152;2023-06-05T06:47:52;3.40;;;1.63;;
1949;SDS011;975;48.760;9.152;2023-06-05T06:50:39;7.05;;;1.90;;
1949;SDS011;975;48.760;9.152;2023-06-05T06:53:28;4.18;;;2.03;;
1949;SDS011;975;48.760;9.152;2023-06-05T06:56:16;4.50;;;1.67;;
1949;SDS011;975;48.760;9.152;2023-06-05T06:59:10;6.65;;;2.63;;
1949;SDS011;975;48.760;9.152;2023-06-05T07:02:11;3.80;;;1.90;;
1949;SDS011;975;48.760;9.152;2023-06-05T07:04:59;6.07;;;1.80;;
1949;SDS011;975;48.760;9.152;2023-06-05T07:07:48;4.68;;;2.20;;
1949;SDS011;975;48.760;9.152;2023-06-05T07:10:36;3.95;;;2.20;;
1949;SDS011;975;48.760;9.152;2023-06-05T07:13:24;2.75;;;1.75;;
1949;SDS011;975;48.760;9.152;2023-06-05T07:16:11;5.85;;;2.20;;
1949;SDS011;975;48.760;9.152;2023-06-05T07:19:01;3.33;;;1.80;;
1949;SDS011;975;48.760;9.152;2023-06-05T07:21:49;4.07;;;2.63;;
1949;SDS011;975;48.760;9.152;2023-06-05T07:24:37;5.13;;;2.33;;
1949;SDS011;975;48.760;9.152;2023-06-05T07:27:25;3.50;;;2.08;;
1949;SDS011;975;48.760;9.152;2023-06-05T07:30:16;4.15;;;2.13;;
1949;SDS011;975;48.760;9.152;2023-06-05T07:33:04;3.67;;;2.20;;
1949;SDS011;975;48.760;9.152;2023-06-05T07:35:57;4.05;;;2.00;;
1949;SDS011;975;48.760;9.152;2023-06-05T07:38:45;3.85;;;2.25;;
1949;SDS011;975;48.760;9.152;2023-06-05T07:41:34;6.00;;;2.50;;
1949;SDS011;975;48.760;9.152;2023-06-05T07:44:22;3.60;;;2.53;;
1949;SDS011;975;48.760;9.152;2023-06-05T07:47:12;4.50;;;2.53;;
1949;SDS011;975;48.760;9.152;2023-06-05T07:50:01;6.00;;;2.38;;
1949;SDS011;975;48.760;9.152;2023-06-05T07:52:52;6.25;;;2.50;;
1949;SDS011;975;48.760;9.152;2023-06-05T07:55:43;3.97;;;2.60;;
1949;SDS011;975;48.760;9.152;2023-06-05T07:58:31;4.20;;;2.50;;
1949;SDS011;975;48.760;9.152;2023-06-05T08:01:20;4.63;;;2.33;;
1949;SDS011;975;48.760;9.152;2023-06-05T08:04:08;3.60;;;2.53;;
1949;SDS011;975;48.760;9.152;2023-06-05T08:06:56;4.85;;;2.58;;
1949;SDS011;975;48.760;9.152;2023-06-05T08:09:46;5.38;;;2.75;;
1949;SDS011;975;48.760;9.152;2023-06-05T08:12:34;6.50;;;2.58;;
1949;SDS011;975;48.760;9.152;2023-06-05T08:15:24;5.70;;;2.60;;
1949;SDS011;975;48.760;9.152;2023-06-05T08:18:15;8.30;;;2.72;;
1949;SDS011;975;48.760;9.152;2023-06-05T08:21:06;4.72;;;3.13;;
1949;SDS011;975;48.760;9.152;2023-06-05T08:23:54;6.68;;;3.97;;
1949;SDS011;975;48.760;9.152;2023-06-05T08:26:43;7.25;;;3.10;;
1949;SDS011;975;48.760;9.152;2023-06-05T08:29:31;5.85;;;3.17;;
1949;SDS011;975;48.760;9.152;2023-06-05T08:32:22;6.35;;;3.40;;
1949;SDS011;975;48.760;9.152;2023-06-05T08:35:10;5.85;;;3.15;;
1949;SDS011;975;48.760;9.152;2023-06-05T08:37:58;4.45;;;3.65;;
1949;SDS011;975;48.760;9.152;2023-06-05T08:40:48;8.27;;;3.08;;
1949;SDS011;975;48.760;9.152;2023-06-05T08:43:41;2.83;;;2.60;;
1949;SDS011;975;48.760;9.152;2023-06-05T08:46:30;5.38;;;3.20;;
1949;SDS011;975;48.760;9.152;2023-06-05T08:49:18;4.88;;;3.05;;
1949;SDS011;975;48.760;9.152;2023-06-05T08:52:10;5.65;;;3.10;;
1949;SDS011;975;48.760;9.152;2023-06-05T08:55:00;6.53;;;3.20;;
1949;SDS011;975;48.760;9.152;2023-06-05T08:57:48;4.65;;;3.13;;
1949;SDS011;975;48.760;9.152;2023-06-05T09:00:46;4.78;;;3.13;;
1949;SDS011;975;48.760;9.152;2023-06-05T09:03:34;5.57;;;3.20;;
1949;SDS011;975;48.760;9.152;2023-06-05T09:06:25;8.45;;;3.08;;
1949;SDS011;975;48.760;9.152;2023-06-05T09:09:14;4.50;;;3.03;;
1949;SDS011;975;48.760;9.152;2023-06-05T09:12:02;5.60;;;3.53;;
1949;SDS011;975;48.760;9.152;2023-06-05T09:14:50;7.38;;;3.30;;
1949;SDS011;975;48.760;9.152;2023-06-05T09:17:40;7.40;;;3.35;;
1949;SDS011;975;48.760;9.152;2023-06-05T09:20:28;4.80;;;3.00;;
1949;SDS011;975;48.760;9.152;2023-06-05T09:23:20;4.95;;;2.88;;
1949;SDS011;975;48.760;9.152;2023-06-05T09:26:10;5.43;;;2.97;;
1949;SDS011;975;48.760;9.152;2023-06-05T09:28:59;5.40;;;3.30;;
1949;SDS011;975;48.760;9.152;2023-06-05T09:31:48;5.13;;;3.45;;
1949;SDS011;975;48.760;9.152;2023-06-05T09:34:39;6.25;;;3.22;;
1949;SDS011;975;48.760;9.152;2023-06-05T09:37:33;6.28;;;3.50;;
1949;SDS011;975;48.760;9.152;2023-06-05T09:40:38;5.03;;;3.05;;
1949;SDS011;975;48.760;9.152;2023-06-05T09:43:26;5.95;;;3.67;;
1949;SDS011;975;48.760;9.152;2023-06-05T09:46:15;9.13;;;2.97;;
1949;SDS011;975;48.760;9.152;2023-06-05T09:49:02;6.80;;;3.33;;
1949;SDS011;975;48.760;9.152;2023-06-05T09:51:52;13.75;;;4.88;;
1949;SDS011;975;48.760;9.152;2023-06-05T09:54:41;5.13;;;2.92;;
1949;SDS011;975;48.760;9.152;2023-06-05T09:57:30;6.63;;;3.17;;
1949;SDS011;975;48.760;9.152;2023-06-05T10:00:19;3.40;;;2.65;;
1949;SDS011;975;48.760;9.152;2023-06-05T10:03:07;7.75;;;3.17;;
1949;SDS011;975;48.760;9.152;2023-06-05T10:05:56;6.60;;;3.67;;
1949;SDS011;975;48.760;9.152;2023-06-05T10:08:45;3.70;;;2.78;;
1949;SDS011;975;48.760;9.152;2023-06-05T10:11:34;4.45;;;2.85;;
1949;SDS011;975;48.760;9.152;2023-06-05T10:14:26;5.95;;;3.38;;
1949;SDS011;975;48.760;9.152;2023-06-05T10:17:14;5.20;;;3.38;;
1949;SDS011;975;48.760;9.152;2023-06-05T10:20:03;4.80;;;3.30;;
1949;SDS011;975;48.760;9.152;2023-06-05T10:22:51;6.72;;;3.35;;
1949;SDS011;975;48.760;9.152;2023-06-05T10:25:40;5.60;;;3.78;;
1949;SDS011;975;48.760;9.152;2023-06-05T10:28:31;4.25;;;2.70;;
1949;SDS011;975;48.760;9.152;2023-06-05T10:31:23;8.45;;;2.72;;
1949;SDS011;975;48.760;9.152;2023-06-05T10:34:18;4.75;;;2.90;;
1949;SDS011;975;48.760;9.152;2023-06-05T10:40:19;3.88;;;2.70;;
1949;SDS011;975;48.760;9.152;2023-06-05T10:46:33;3.40;;;2.70;;
1949;SDS011;975;48.760;9.152;2023-06-05T10:49:21;5.10;;;2.90;;
1949;SDS011;975;48.760;9.152;2023-06-05T10:52:14;4.55;;;2.70;;
1949;SDS011;975;48.760;9.152;2023-06-05T10:55:22;3.88;;;2.42;;
1949;SDS011;975;48.760;9.152;2023-06-05T10:58:11;4.45;;;2.58;;
1949;SDS011;975;48.760;9.152;2023-06-05T11:01:16;4.13;;;2.40;;
1949;SDS011;975;48.760;9.152;2023-06-05T11:04:07;3.85;;;2.45;;
1949;SDS011;975;48.760;9.152;2023-06-05T11:10:04;4.55;;;2.35;;
1949;SDS011;975;48.760;9.152;2023-06-05T11:12:58;5.43;;;2.40;;
1949;SDS011;975;48.760;9.152;2023-06-05T11:15:46;5.50;;;2.53;;
1949;SDS011;975;48.760;9.152;2023-06-05T11:18:39;5.25;;;2.47;;
1949;SDS011;975;48.760;9.152;2023-06-05T11:24:34;6.10;;;2.60;;
1949;SDS011;975;48.760;9.152;2023-06-05T11:27:41;2.92;;;2.50;;
1949;SDS011;975;48.760;9.152;2023-06-05T11:30:29;4.53;;;2.33;;
1949;SDS011;975;48.760;9.152;2023-06-05T11:33:18;5.35;;;2.55;;
1949;SDS011;975;48.760;9.152;2023-06-05T11:36:07;4.75;;;2.47;;
1949;SDS011;975;48.760;9.152;2023-06-05T11:38:56;5.18;;;2.88;;
1949;SDS011;975;48.760;9.152;2023-06-05T11:41:46;5.10;;;2.60;;
1949;SDS011;975;48.760;9.152;2023-06-05T11:44:35;6.32;;;2.50;;
1949;SDS011;975;48.760;9.152;2023-06-05T11:47:27;3.75;;;2.67;;
1949;SDS011;975;48.760;9.152;2023-06-05T11:50:15;3.13;;;2.60;;
1949;SDS011;975;48.760;9.152;2023-06-05T11:53:04;5.88;;;2.80;;
1949;SDS011;975;48.760;9.152;2023-06-05T11:55:52;3.50;;;2.83;;
1949;SDS011;975;48.760;9.152;2023-06-05T11:58:57;2.70;;;2.17;;
1949;SDS011;975;48.760;9.152;2023-06-05T12:01:45;4.25;;;2.40;;
1949;SDS011;975;48.760;9.152;2023-06-05T12:04:33;2.85;;;2.22;;
1949;SDS011;975;48.760;9.152;2023-06-05T12:07:27;7.15;;;2.80;;
1949;SDS011;975;48.760;9.152;2023-06-05T12:13:05;4.13;;;2.42;;
1949;SDS011;975;48.760;9.152;2023-06-05T12:15:57;3.92;;;2.40;;
1949;SDS011;975;48.760;9.152;2023-06-05T12:18:45;4.18;;;2.53;;
1949;SDS011;975;48.760;9.152;2023-06-05T12:21:35;3.00;;;2.35;;
1949;SDS011;975;48.760;9.152;2023-06-05T12:24:23;4.45;;;2.03;;
1949;SDS011;975;48.760;9.152;2023-06-05T12:27:11;4.43;;;2.33;;
1949;SDS011;975;48.760;9.152;2023-06-05T12:29:59;4.15;;;2.40;;
1949;SDS011;975;48.760;9.152;2023-06-05T12:32:48;3.65;;;2.25;;
1949;SDS011;975;48.760;9.152;2023-06-05T12:35:36;4.18;;;2.40;;
1949;SDS011;975;48.760;9.152;2023-06-05T12:38:24;3.63;;;2.45;;
1949;SDS011;975;48.760;9.152;2023-06-05T12:41:12;3.13;;;2.30;;
1949;SDS011;975;48.760;9.152;2023-06-05T12:44:00;4.65;;;2.40;;
1949;SDS011;975;48.760;9.152;2023-06-05T12:46:50;6.05;;;2.50;;
1949;SDS011;975;48.760;9.152;2023-06-05T12:49:39;4.05;;;2.35;;
1949;SDS011;975;48.760;9.152;2023-06-05T12:55:14;5.50;;;3.65;;
1949;SDS011;975;48.760;9.152;2023-06-05T12:58:02;3.88;;;2.58;;
1949;SDS011;975;48.760;9.152;2023-06-05T13:00:50;3.78;;;2.30;;
1949;SDS011;975;48.760;9.152;2023-06-05T13:03:39;3.67;;;2.40;;
1949;SDS011;975;48.760;9.152;2023-06-05T13:06:29;4.70;;;2.55;;
1949;SDS011;975;48.760;9.152;2023-06-05T13:09:19;4.40;;;2.70;;
1949;SDS011;975;48.760;9.152;2023-06-05T13:12:07;4.97;;;2.60;;
1949;SDS011;975;48.760;9.152;2023-06-05T13:14:57;6.25;;;2.92;;
1949;SDS011;975;48.760;9.152;2023-06-05T13:17:48;5.75;;;2.70;;
1949;SDS011;975;48.760;9.152;2023-06-05T13:20:36;6.95;;;2.60;;
1949;SDS011;975;48.760;9.152;2023-06-05T13:23:25;4.95;;;2.40;;
1949;SDS011;975;48.760;9.152;2023-06-05T13:26:16;2.80;;;2.47;;
1949;SDS011;975;48.760;9.152;2023-06-05T13:29:04;4.57;;;2.90;;
1949;SDS011;975;48.760;9.152;2023-06-05T13:31:53;3.97;;;2.72;;
1949;SDS011;975;48.760;9.152;2023-06-05T13:34:41;4.28;;;3.28;;
1949;SDS011;975;48.760;9.152;2023-06-05T13:37:28;8.30;;;2.70;;
1949;SDS011;975;48.760;9.152;2023-06-05T13:40:18;4.65;;;2.85;;
1949;SDS011;975;48.760;9.152;2023-06-05T13:43:05;4.00;;;2.67;;
1949;SDS011;975;48.760;9.152;2023-06-05T13:45:53;4.28;;;2.50;;
1949;SDS011;975;48.760;9.152;2023-06-05T13:48:41;3.92;;;2.60;;
1949;SDS011;975;48.760;9.152;2023-06-05T13:51:29;5.40;;;3.08;;
1949;SDS011;975;48.760;9.152;2023-06-05T13:54:17;6.38;;;2.80;;
1949;SDS011;975;48.760;9.152;2023-06-05T13:57:10;4.10;;;2.70;;
1949;SDS011;975;48.760;9.152;2023-06-05T13:59:58;4.28;;;2.65;;
1949;SDS011;975;48.760;9.152;2023-06-05T14:02:46;3.03;;;2.50;;
1949;SDS011;975;48.760;9.152;2023-06-05T14:05:34;5.70;;;2.92;;
1949;SDS011;975;48.760;9.152;2023-06-05T14:08:22;3.33;;;2.58;;
1949;SDS011;975;48.760;9.152;2023-06-05T14:11:13;5.13;;;3.28;;
1949;SDS011;975;48.760;9.152;2023-06-05T14:14:02;6.88;;;2.72;;
1949;SDS011;975;48.760;9.152;2023-06-05T14:16:51;5.43;;;3.47;;
1949;SDS011;975;48.760;9.152;2023-06-05T14:19:39;2.90;;;2.60;;
1949;SDS011;975;48.760;9.152;2023-06-05T14:22:27;5.30;;;2.80;;
1949;SDS011;975;48.760;9.152;2023-06-05T14:25:15;4.15;;;3.15;;
1949;SDS011;975;48.760;9.152;2023-06-05T14:28:11;10.40;;;4.07;;
1949;SDS011;975;48.760;9.152;2023-06-05T14:33:49;3.17;;;2.50;;
1949;SDS011;975;48.760;9.152;2023-06-05T14:39:24;3.30;;;2.58;;
1949;SDS011;975;48.760;9.152;2023-06-05T14:42:12;6.55;;;2.63;;
1949;SDS011;975;48.760;9.152;2023-06-05T14:45:00;4.25;;;2.60;;
1949;SDS011;975;48.760;9.152;2023-06-05T14:47:51;4.32;;;2.75;;
1949;SDS011;975;48.760;9.152;2023-06-05T14:50:40;4.65;;;2.58;;
1949;SDS011;975;48.760;9.152;2023-06-05T14:53:28;3.58;;;2.40;;
1949;SDS011;975;48.760;9.152;2023-06-05T14:56:17;6.95;;;2.63;;
1949;SDS011;975;48.760;9.152;2023-06-05T14:59:05;5.00;;;2.63;;
1949;SDS011;975;48.760;9.152;2023-06-05T15:02:01;4.13;;;2.75;;
1949;SDS011;975;48.760;9.152;2023-06-05T15:10:35;3.85;;;2.50;;
1949;SDS011;975;48.760;9.152;2023-06-05T15:13:23;4.25;;;2.65;;
1949;SDS011;975;48.760;9.152;2023-06-05T15:16:14;4.20;;;2.78;;
1949;SDS011;975;48.760;9.152;2023-06-05T15:19:02;3.70;;;2.50;;
1949;SDS011;975;48.760;9.152;2023-06-05T15:21:55;4.32;;;2.58;;
1949;SDS011;975;48.760;9.152;2023-06-05T15:24:47;3.55;;;2.50;;
1949;SDS011;975;48.760;9.152;2023-06-05T15:27:36;7.25;;;2.53;;
1949;SDS011;975;48.760;9.152;2023-06-05T15:30:24;2.85;;;2.25;;
1949;SDS011;975;48.760;9.152;2023-06-05T15:33:13;4.07;;;2.55;;
1949;SDS011;975;48.760;9.152;2023-06-05T15:36:01;3.55;;;2.40;;
1949;SDS011;975;48.760;9.152;2023-06-05T15:38:49;2.70;;;2.15;;
1949;SDS011;975;48.760;9.152;2023-06-05T15:41:37;4.10;;;2.45;;
1949;SDS011;975;48.760;9.152;2023-06-05T15:44:26;3.67;;;2.05;;
1949;SDS011;975;48.760;9.152;2023-06-05T15:47:14;4.47;;;2.65;;
1949;SDS011;975;48.760;9.152;2023-06-05T15:50:05;6.55;;;2.53;;
1949;SDS011;975;48.760;9.152;2023-06-05T15:52:53;2.90;;;2.25;;
1949;SDS011;975;48.760;9.152;2023-06-05T15:55:44;3.40;;;2.20;;
1949;SDS011;975;48.760;9.152;2023-06-05T15:58:32;3.60;;;2.45;;
1949;SDS011;975;48.760;9.152;2023-06-05T16:01:21;2.75;;;2.13;;
1949;SDS011;975;48.760;9.152;2023-06-05T16:04:09;4.10;;;2.30;;
1949;SDS011;975;48.760;9.152;2023-06-05T16:06:57;4.72;;;2.30;;
1949;SDS011;975;48.760;9.152;2023-06-05T16:09:44;5.78;;;2.28;;
1949;SDS011;975;48.760;9.152;2023-06-05T16:12:32;3.35;;;2.35;;
1949;SDS011;975;48.760;9.152;2023-06-05T16:15:22;7.25;;;2.33;;
1949;SDS011;975;48.760;9.152;2023-06-05T16:18:13;3.47;;;2.33;;
1949;SDS011;975;48.760;9.152;2023-06-05T16:21:01;4.28;;;2.47;;
1949;SDS011;975;48.760;9.152;2023-06-05T16:23:49;3.92;;;2.53;;
1949;SDS011;975;48.760;9.152;2023-06-05T16:26:37;5.88;;;2.55;;
1949;SDS011;975;48.760;9.152;2023-06-05T16:29:25;4.95;;;2.75;;
1949;SDS011;975;48.760;9.152;2023-06-05T16:32:13;3.38;;;2.22;;
1949;SDS011;975;48.760;9.152;2023-06-05T16:35:04;4.07;;;2.22;;
1949;SDS011;975;48.760;9.152;2023-06-05T16:37:56;3.63;;;2.42;;
1949;SDS011;975;48.760;9.152;2023-06-05T16:40:44;2.67;;;2.40;;
1949;SDS011;975;48.760;9.152;2023-06-05T16:43:31;2.95;;;2.35;;
1949;SDS011;975;48.760;9.152;2023-06-05T16:46:19;3.60;;;2.53;;
1949;SDS011;975;48.760;9.152;2023-06-05T16:49:09;3.00;;;2.20;;
1949;SDS011;975;48.760;9.152;2023-06-05T16:51:58;2.50;;;2.00;;
1949;SDS011;975;48.760;9.152;2023-06-05T16:54:46;3.80;;;2.30;;
1949;SDS011;975;48.760;9.152;2023-06-05T16:57:35;5.10;;;2.42;;
1949;SDS011;975;48.760;9.152;2023-06-05T17:00:23;3.92;;;2.67;;
1949;SDS011;975;48.760;9.152;2023-06-05T17:03:11;7.80;;;2.92;;
1949;SDS011;975;48.760;9.152;2023-06-05T17:05:59;5.28;;;3.08;;
1949;SDS011;975;48.760;9.152;2023-06-05T17:08:48;2.88;;;2.40;;
1949;SDS011;975;48.760;9.152;2023-06-05T17:11:35;3.72;;;2.80;;
1949;SDS011;975;48.760;9.152;2023-06-05T17:14:23;4.50;;;2.20;;
1949;SDS011;975;48.760;9.152;2023-06-05T17:17:14;2.97;;;2.13;;
1949;SDS011;975;48.760;9.152;2023-06-05T17:20:02;3.35;;;2.17;;
1949;SDS011;975;48.760;9.152;2023-06-05T17:22:51;6.05;;;2.55;;
1949;SDS011;975;48.760;9.152;2023-06-05T17:25:40;2.67;;;2.10;;
1949;SDS011;975;48.760;9.152;2023-06-05T17:31:15;5.63;;;2.20;;
1949;SDS011;975;48.760;9.152;2023-06-05T17:34:06;3.05;;;2.00;;
1949;SDS011;975;48.760;9.152;2023-06-05T17:36:53;4.65;;;2.05;;
1949;SDS011;975;48.760;9.152;2023-06-05T17:39:41;4.45;;;2.25;;
1949;SDS011;975;48.760;9.152;2023-06-05T17:42:30;2.78;;;2.03;;
1949;SDS011;975;48.760;9.152;2023-06-05T17:48:07;3.53;;;2.22;;
1949;SDS011;975;48.760;9.152;2023-06-05T17:50:55;4.45;;;2.00;;
1949;SDS011;975;48.760;9.152;2023-06-05T17:53:46;3.47;;;2.65;;
1949;SDS011;975;48.760;9.152;2023-06-05T17:56:33;3.60;;;2.60;;
1949;SDS011;975;48.760;9.152;2023-06-05T17:59:24;3.83;;;2.33;;
1949;SDS011;975;48.760;9.152;2023-06-05T18:02:15;3.05;;;2.15;;
1949;SDS011;975;48.760;9.152;2023-06-05T18:05:03;3.13;;;2.58;;
1949;SDS011;975;48.760;9.152;2023-06-05T18:07:51;2.58;;;2.08;;
1949;SDS011;975;48.760;9.152;2023-06-05T18:10:39;4.47;;;2.20;;
1949;SDS011;975;48.760;9.152;2023-06-05T18:13:26;3.65;;;2.33;;
1949;SDS011;975;48.760;9.152;2023-06-05T18:16:19;3.33;;;2.17;;
1949;SDS011;975;48.760;9.152;2023-06-05T18:19:06;5.00;;;2.50;;
1949;SDS011;975;48.760;9.152;2023-06-05T18:21:54;4.68;;;1.67;;
1949;SDS011;975;48.760;9.152;2023-06-05T18:24:44;4.78;;;2.35;;
1949;SDS011;975;48.760;9.152;2023-06-05T18:27:32;10.52;;;3.33;;
1949;SDS011;975;48.760;9.152;2023-06-05T18:30:19;4.20;;;2.47;;